createdAt,value
2018-12-20T00:01:15.611Z,331.93
2018-12-20T00:03:43.945Z,329.77
2018-12-20T00:06:12.268Z,332.10
2018-12-20T00:08:40.598Z,339.72
2018-12-20T00:11:09.689Z,328.45
2018-12-20T00:13:38.049Z,332.80
2018-12-20T00:16:09.150Z,333.68
2018-12-20T00:18:37.913Z,329.40
2018-12-20T00:21:06.501Z,336.27
2018-12-20T00:23:34.980Z,328.10
2018-12-20T00:26:04.838Z,335.52
2018-12-20T00:28:33.293Z,334.50
2018-12-20T00:31:01.875Z,341.82
2018-12-20T00:33:30.397Z,331.40
2018-12-20T00:35:59.050Z,338.15
2018-12-20T00:38:28.374Z,340.00
2018-12-20T00:40:56.793Z,349.25
2018-12-20T00:43:26.166Z,342.95
2018-12-20T00:45:54.594Z,344.40
2018-12-20T00:48:23.031Z,344.25
2018-12-20T00:50:51.356Z,337.98
2018-12-20T00:53:19.865Z,343.23
2018-12-20T00:55:48.892Z,338.00
2018-12-20T00:58:18.154Z,343.88
2018-12-20T01:00:46.662Z,338.90
2018-12-20T01:03:15.129Z,340.00
2018-12-20T01:05:43.609Z,340.15
2018-12-20T01:08:12.021Z,342.48
2018-12-20T01:10:40.457Z,349.55
2018-12-20T01:13:09.050Z,344.37
2018-12-20T01:15:37.656Z,343.82
2018-12-20T01:18:06.015Z,337.60
2018-12-20T01:20:35.738Z,349.12
2018-12-20T01:23:04.301Z,344.55
2018-12-20T01:25:32.710Z,353.23
2018-12-20T01:28:01.122Z,351.27
2018-12-20T01:30:30.551Z,350.05
2018-12-20T01:32:58.875Z,357.55
2018-12-20T01:35:27.237Z,359.52
2018-12-20T01:37:55.680Z,351.42
2018-12-20T01:40:24.313Z,352.65
2018-12-20T01:42:52.845Z,362.90
2018-12-20T01:45:21.186Z,362.90
2018-12-20T01:47:49.579Z,355.73
2018-12-20T01:50:18.976Z,358.87
2018-12-20T01:52:47.347Z,355.35
2018-12-20T01:55:15.836Z,356.27
2018-12-20T01:57:44.449Z,364.82
2018-12-20T02:00:13.036Z,363.77
2018-12-20T02:02:41.345Z,362.52
2018-12-20T02:05:10.735Z,369.87
2018-12-20T02:07:39.226Z,364.85
2018-12-20T02:10:07.817Z,373.25
2018-12-20T02:12:36.235Z,364.50
2018-12-20T02:15:06.333Z,361.87
2018-12-20T02:17:34.691Z,369.13
2018-12-20T02:20:05.203Z,371.98
2018-12-20T02:22:33.699Z,375.05
2018-12-20T02:25:03.278Z,363.57
2018-12-20T02:27:31.724Z,355.90
2018-12-20T02:30:00.104Z,368.35
2018-12-20T02:32:29.500Z,369.77
2018-12-20T02:34:58.065Z,367.30
2018-12-20T02:37:26.499Z,367.48
2018-12-20T02:39:54.979Z,371.35
2018-12-20T02:42:23.515Z,374.55
2018-12-20T02:44:51.876Z,363.50
2018-12-20T02:47:22.349Z,372.95
2018-12-20T02:49:50.751Z,365.18
2018-12-20T02:52:19.185Z,368.97
2018-12-20T02:54:48.504Z,378.02
2018-12-20T02:57:17.675Z,372.30
2018-12-20T02:59:48.100Z,365.18
2018-12-20T03:02:16.638Z,371.05
2018-12-20T03:07:42.832Z,367.60
2018-12-20T03:10:11.442Z,362.35
2018-12-20T03:12:39.924Z,374.77
2018-12-20T03:15:08.535Z,363.77
2018-12-20T03:17:37.257Z,365.68
2018-12-20T03:20:06.081Z,362.98
2018-12-20T03:22:35.183Z,367.27
2018-12-20T03:25:04.332Z,372.95
2018-12-20T03:27:33.007Z,386.52
2018-12-20T03:30:01.532Z,372.02
2018-12-20T03:32:30.013Z,373.87
2018-12-20T03:34:58.648Z,377.32
2018-12-20T03:37:27.127Z,371.62
2018-12-20T03:39:56.845Z,369.62
2018-12-20T03:42:25.550Z,365.48
2018-12-20T03:44:54.235Z,359.77
2018-12-20T03:47:24.280Z,366.88
2018-12-20T03:49:52.882Z,362.20
2018-12-20T03:52:21.482Z,362.02
2018-12-20T03:54:50.105Z,365.92
2018-12-20T03:57:18.514Z,362.00
2018-12-20T03:59:46.981Z,359.65
2018-12-20T04:02:15.583Z,358.40
2018-12-20T04:04:44.227Z,358.00
2018-12-20T04:07:12.737Z,352.07
2018-12-20T04:09:42.239Z,354.15
2018-12-20T04:12:11.630Z,355.15
2018-12-20T04:14:39.957Z,352.18
2018-12-20T04:17:08.774Z,361.10
2018-12-20T04:19:37.198Z,355.70
2018-12-20T04:22:05.928Z,354.65
2018-12-20T04:24:34.489Z,350.17
2018-12-20T04:27:02.944Z,348.18
2018-12-20T04:29:32.251Z,350.15
2018-12-20T04:32:00.607Z,345.80
2018-12-20T04:34:29.605Z,344.87
2018-12-20T04:36:57.981Z,348.73
2018-12-20T04:39:26.397Z,359.60
2018-12-20T04:41:56.493Z,363.90
2018-12-20T04:44:25.847Z,361.52
2018-12-20T04:46:54.600Z,377.15
2018-12-20T04:49:23.122Z,382.62
2018-12-20T04:51:51.467Z,381.30
2018-12-20T04:54:19.879Z,387.72
2018-12-20T04:56:49.163Z,382.70
2018-12-20T04:59:18.584Z,383.93
2018-12-20T05:01:47.855Z,392.10
2018-12-20T05:04:17.693Z,393.70
2018-12-20T05:06:47.013Z,391.50
2018-12-20T05:09:15.479Z,387.90
2018-12-20T05:11:43.980Z,387.42
2018-12-20T05:14:12.516Z,395.25
2018-12-20T05:16:40.947Z,390.70
2018-12-20T05:19:09.575Z,392.55
2018-12-20T05:21:38.157Z,390.90
2018-12-20T05:24:06.586Z,394.90
2018-12-20T05:26:36.103Z,395.13
2018-12-20T05:29:04.739Z,395.48
2018-12-20T05:31:33.116Z,397.98
2018-12-20T05:34:01.903Z,396.25
2018-12-20T05:36:30.569Z,399.32
2018-12-20T05:38:59.032Z,397.02
2018-12-20T05:43:59.275Z,400.87
2018-12-20T05:46:28.562Z,405.73
2018-12-20T05:48:58.089Z,402.43
2018-12-20T05:51:26.414Z,403.65
2018-12-20T05:53:54.726Z,404.10
2018-12-20T05:56:24.033Z,407.90
2018-12-20T05:58:52.717Z,408.40
2018-12-20T06:01:21.189Z,406.13
2018-12-20T06:03:50.314Z,402.13
2018-12-20T06:06:18.618Z,402.17
2018-12-20T06:08:47.060Z,407.05
2018-12-20T06:11:15.382Z,402.23
2018-12-20T06:13:43.696Z,408.60
2018-12-20T06:16:13.050Z,407.83
2018-12-20T06:18:41.774Z,403.60
2018-12-20T06:21:10.675Z,406.43
2018-12-20T06:23:38.986Z,419.30
2018-12-20T06:26:07.394Z,402.97
2018-12-20T06:28:35.793Z,409.15
2018-12-20T06:31:04.720Z,409.27
2018-12-20T06:33:33.057Z,411.52
2018-12-20T06:36:02.113Z,407.03
2018-12-20T06:38:30.429Z,409.67
2018-12-20T06:40:58.900Z,404.38
2018-12-20T06:43:27.212Z,411.80
2018-12-20T06:45:56.048Z,404.23
2018-12-20T06:48:24.391Z,411.20
2018-12-20T06:52:41.912Z,410.37
2018-12-20T06:55:10.321Z,407.80
2018-12-20T06:57:38.656Z,410.87
2018-12-20T07:00:08.536Z,406.75
2018-12-20T07:02:38.530Z,407.55
2018-12-20T07:05:07.082Z,409.37
2018-12-20T07:07:35.485Z,411.45
2018-12-20T07:10:05.579Z,402.95
2018-12-20T07:12:34.019Z,407.23
2018-12-20T07:15:02.859Z,409.07
2018-12-20T07:17:31.201Z,401.83
2018-12-20T07:19:59.551Z,403.93
2018-12-20T07:22:27.941Z,399.57
2018-12-20T07:24:56.272Z,406.13
2018-12-20T07:27:24.729Z,407.25
2018-12-20T07:29:54.069Z,412.55
2018-12-20T07:32:25.325Z,404.02
2018-12-20T07:34:52.865Z,400.72
2018-12-20T07:37:21.386Z,399.92
2018-12-20T07:39:49.746Z,399.85
2018-12-20T07:42:20.103Z,395.33
2018-12-20T07:44:48.570Z,400.95
2018-12-20T07:47:17.005Z,398.00
2018-12-20T07:49:45.345Z,389.73
2018-12-20T07:52:13.761Z,385.63
2018-12-20T07:54:43.243Z,383.45
2018-12-20T07:57:11.590Z,384.50
2018-12-20T07:59:40.060Z,389.45
2018-12-20T08:02:08.631Z,382.57
2018-12-20T08:04:37.008Z,382.40
2018-12-20T08:07:06.000Z,386.82
2018-12-20T08:09:34.379Z,384.52
2018-12-20T08:12:02.723Z,394.85
2018-12-20T08:14:32.926Z,392.77
2018-12-20T08:17:01.339Z,389.95
2018-12-20T08:19:36.229Z,395.18
2018-12-20T08:22:02.198Z,397.90
2018-12-20T08:24:30.368Z,407.58
2018-12-20T08:26:58.757Z,407.50
2018-12-20T08:29:27.234Z,406.60
2018-12-20T08:31:55.643Z,421.22
2018-12-20T08:34:23.985Z,416.55
2018-12-20T08:36:53.216Z,415.92
2018-12-20T08:39:21.522Z,419.45
2018-12-20T08:41:49.927Z,422.48
2018-12-20T08:44:18.490Z,422.80
2018-12-20T08:46:54.303Z,432.08
2018-12-20T08:49:19.869Z,443.97
2018-12-20T08:51:49.128Z,450.02
2018-12-20T08:54:17.771Z,437.77
2018-12-20T08:56:46.122Z,449.40
2018-12-20T08:59:14.496Z,450.70
2018-12-20T09:01:42.943Z,447.33
2018-12-20T09:04:11.280Z,453.15
2018-12-20T09:06:39.693Z,454.57
2018-12-20T09:09:08.013Z,465.02
2018-12-20T09:11:36.443Z,469.73
2018-12-20T09:14:04.736Z,467.25
2018-12-20T09:16:33.391Z,474.12
2018-12-20T09:19:01.846Z,474.70
2018-12-20T09:21:30.218Z,489.35
2018-12-20T09:23:58.734Z,493.43
2018-12-20T09:26:27.049Z,497.00
2018-12-20T09:28:56.177Z,500.05
2018-12-20T09:31:24.495Z,507.50
2018-12-20T09:36:49.286Z,515.50
2018-12-20T09:39:17.732Z,521.10
2018-12-20T09:41:46.230Z,525.90
2018-12-20T09:44:14.679Z,520.98
2018-12-20T09:46:43.119Z,518.27
2018-12-20T09:49:11.433Z,525.70
2018-12-20T09:51:40.682Z,518.60
2018-12-20T09:54:08.974Z,522.50
2018-12-20T09:56:38.493Z,519.95
2018-12-20T09:59:06.968Z,520.03
2018-12-20T10:01:35.345Z,518.17
2018-12-20T10:04:03.809Z,519.05
2018-12-20T10:06:32.130Z,514.78
2018-12-20T10:09:00.574Z,519.13
2018-12-20T10:11:29.006Z,524.27
2018-12-20T10:13:57.355Z,503.70
2018-12-20T10:16:25.728Z,500.85
2018-12-20T10:18:54.190Z,500.00
2018-12-20T10:21:23.561Z,498.80
2018-12-20T10:23:54.405Z,505.43
2018-12-20T10:26:22.737Z,492.55
2018-12-20T10:28:51.599Z,499.38
2018-12-20T10:31:19.916Z,500.42
2018-12-20T10:33:48.242Z,500.53
2018-12-20T10:38:44.652Z,510.90
2018-12-20T10:41:13.306Z,518.15
2018-12-20T10:43:41.730Z,509.77
2018-12-20T10:46:10.187Z,514.45
2018-12-20T10:48:39.668Z,517.85
2018-12-20T10:51:08.069Z,523.52
2018-12-20T10:53:36.360Z,533.77
2018-12-20T10:56:05.273Z,539.25
2018-12-20T10:58:33.862Z,525.75
2018-12-20T11:01:07.808Z,534.30
2018-12-20T11:03:41.804Z,549.48
2018-12-20T11:06:15.967Z,566.33
2018-12-20T11:08:46.388Z,576.33
2018-12-20T11:11:17.457Z,577.20
2018-12-20T11:13:45.987Z,586.70
2018-12-20T11:16:14.504Z,595.05
2018-12-20T11:18:43.960Z,597.10
2018-12-20T11:21:12.354Z,599.55
2018-12-20T11:23:40.916Z,606.20
2018-12-20T11:26:09.213Z,601.50
2018-12-20T11:28:37.572Z,1.70
2018-12-20T11:31:06.159Z,1.73
2018-12-20T11:33:34.534Z,1.73
2018-12-20T11:36:03.014Z,6.30
2018-12-20T11:38:31.392Z,2.17
2018-12-20T11:40:59.714Z,1.70
2018-12-20T11:43:28.208Z,2.30
2018-12-20T11:45:57.560Z,23.07
2018-12-20T11:48:25.887Z,2.60
2018-12-20T11:50:54.280Z,6.63
2018-12-20T11:53:22.580Z,4.17
2018-12-20T11:55:51.185Z,63.27
2018-12-20T11:58:19.587Z,90.12
2018-12-20T12:00:48.023Z,3.98
2018-12-20T12:06:13.349Z,1.90
2018-12-20T12:08:41.690Z,1.67
2018-12-20T12:11:10.019Z,2.00
2018-12-20T12:13:39.236Z,2.00
2018-12-20T12:16:07.720Z,2.60
2018-12-20T12:18:36.121Z,3.17
2018-12-20T12:21:04.823Z,1.90
2018-12-20T12:23:33.095Z,1.53
2018-12-20T12:26:01.496Z,3.27
2018-12-20T12:28:30.829Z,2.33
2018-12-20T12:30:59.391Z,3.93
2018-12-20T12:33:27.744Z,3.03
2018-12-20T12:35:56.818Z,3.37
2018-12-20T12:38:25.701Z,1.90
2018-12-20T12:40:54.123Z,2.00
2018-12-20T12:43:22.419Z,1.80
2018-12-20T12:45:50.711Z,1.80
2018-12-20T12:48:19.131Z,4.30
2018-12-20T12:50:47.461Z,2.47
2018-12-20T12:53:16.469Z,2.93
2018-12-20T12:55:44.902Z,1.73
2018-12-20T12:58:13.802Z,2.17
2018-12-20T13:00:42.120Z,2.17
2018-12-20T13:03:10.503Z,1.90
2018-12-20T13:05:39.155Z,2.43
2018-12-20T13:08:08.797Z,2.40
2018-12-20T13:10:37.886Z,2.52
2018-12-20T13:13:06.216Z,2.63
2018-12-20T13:15:34.524Z,1.90
2018-12-20T13:18:04.622Z,1.80
2018-12-20T13:20:33.298Z,2.37
2018-12-20T13:23:02.315Z,2.07
2018-12-20T13:25:30.659Z,1.70
2018-12-20T13:27:59.747Z,2.42
2018-12-20T13:30:28.973Z,1.97
2018-12-20T13:32:57.413Z,40.03
2018-12-20T13:35:25.943Z,1.97
2018-12-20T13:37:54.292Z,2.93
2018-12-20T13:40:22.706Z,92.10
2018-12-20T13:42:51.057Z,6.00
2018-12-20T13:45:19.623Z,5.40
2018-12-20T13:47:48.672Z,8.18
2018-12-20T13:50:16.982Z,5.42
2018-12-20T13:52:45.339Z,31.80
2018-12-20T13:55:15.165Z,3.40
2018-12-20T13:57:44.406Z,2.42
2018-12-20T14:00:14.692Z,3.60
2018-12-20T14:02:43.738Z,86.60
2018-12-20T14:05:12.743Z,3.52
2018-12-20T14:07:41.219Z,3.50
2018-12-20T14:10:09.797Z,4.93
2018-12-20T14:12:38.115Z,5.60
2018-12-20T14:15:07.159Z,4.33
2018-12-20T14:17:36.411Z,3.40
2018-12-20T14:20:05.821Z,2.43
2018-12-20T14:22:34.194Z,213.22
2018-12-20T14:25:02.603Z,3.17
2018-12-20T14:27:31.274Z,2.05
2018-12-20T14:29:59.911Z,1.80
2018-12-20T14:32:28.231Z,1.80
2018-12-20T14:34:56.524Z,1.60
2018-12-20T14:37:24.827Z,1.70
2018-12-20T14:39:53.146Z,1.82
2018-12-20T14:42:21.548Z,153.83
2018-12-20T14:44:49.919Z,234.40
2018-12-20T14:47:18.216Z,2.20
2018-12-20T14:49:46.649Z,2.10
2018-12-20T14:52:14.975Z,22.73
2018-12-20T14:54:44.213Z,1.98
2018-12-20T14:57:13.443Z,2.25
2018-12-20T14:59:41.752Z,2.17
2018-12-20T15:02:10.198Z,2.50
2018-12-20T15:04:39.440Z,2.33
2018-12-20T15:07:07.723Z,2.87
2018-12-20T15:09:36.101Z,3.10
2018-12-20T15:12:05.752Z,2.13
2018-12-20T15:14:34.967Z,2.60
2018-12-20T15:17:03.327Z,2.27
2018-12-20T15:19:31.795Z,2.47
2018-12-20T15:22:00.098Z,2.90
2018-12-20T15:24:28.426Z,3.27
2018-12-20T15:26:56.949Z,3.00
2018-12-20T15:29:25.310Z,2.83
2018-12-20T15:31:53.801Z,2.37
2018-12-20T15:34:22.339Z,2.70
2018-12-20T15:36:50.759Z,2.63
2018-12-20T15:39:19.105Z,2.87
2018-12-20T15:41:47.493Z,2.60
2018-12-20T15:44:15.802Z,2.98
2018-12-20T15:46:44.550Z,2.47
2018-12-20T15:49:13.310Z,2.10
2018-12-20T15:51:41.638Z,3.00
2018-12-20T15:54:10.132Z,3.00
2018-12-20T15:56:38.528Z,3.03
2018-12-20T15:59:07.747Z,8.10
2018-12-20T16:01:36.223Z,7.00
2018-12-20T16:04:05.315Z,5.33
2018-12-20T16:06:34.350Z,4.95
2018-12-20T16:09:05.526Z,5.10
2018-12-20T16:11:33.822Z,4.23
2018-12-20T16:14:02.131Z,5.35
2018-12-20T16:16:30.566Z,4.90
2018-12-20T16:19:04.857Z,5.00
2018-12-20T16:21:30.149Z,3.57
2018-12-20T16:23:58.447Z,3.43
2018-12-20T16:26:26.876Z,3.10
2018-12-20T16:28:55.881Z,3.37
2018-12-20T16:31:24.194Z,3.93
2018-12-20T16:33:52.517Z,4.58
2018-12-20T16:36:22.056Z,3.53
2018-12-20T16:38:50.474Z,3.50
2018-12-20T16:41:20.067Z,3.70
2018-12-20T16:43:48.393Z,3.58
2018-12-20T16:46:16.728Z,3.50
2018-12-20T16:48:46.976Z,3.07
2018-12-20T16:51:15.675Z,2.60
2018-12-20T16:53:45.004Z,2.10
2018-12-20T16:56:13.392Z,3.40
2018-12-20T16:58:41.706Z,2.93
2018-12-20T17:01:10.009Z,3.13
2018-12-20T17:03:38.323Z,3.08
2018-12-20T17:06:06.674Z,3.60
2018-12-20T17:08:35.547Z,3.72
2018-12-20T17:11:03.826Z,4.35
2018-12-20T17:13:32.165Z,3.45
2018-12-20T17:16:00.538Z,3.17
2018-12-20T17:18:28.870Z,3.58
2018-12-20T17:20:57.173Z,2.60
2018-12-20T17:26:21.810Z,2.83
2018-12-20T17:28:50.199Z,2.87
2018-12-20T17:31:18.510Z,2.92
2018-12-20T17:33:47.294Z,3.12
2018-12-20T17:36:15.790Z,3.45
2018-12-20T17:41:42.455Z,3.58
2018-12-20T17:44:10.843Z,4.40
2018-12-20T17:46:39.161Z,4.67
2018-12-20T17:49:07.554Z,5.30
2018-12-20T17:51:35.888Z,4.20
2018-12-20T17:57:01.959Z,3.72
2018-12-20T17:59:30.370Z,3.83
2018-12-20T18:01:58.805Z,4.00
2018-12-20T18:04:27.101Z,8.30
2018-12-20T18:06:55.585Z,5.20
2018-12-20T18:09:24.826Z,5.53
2018-12-20T18:11:53.239Z,6.22
2018-12-20T18:14:21.648Z,5.62
2018-12-20T18:16:50.046Z,3.45
2018-12-20T18:19:18.338Z,4.30
2018-12-20T18:21:46.636Z,3.15
2018-12-20T18:24:15.303Z,3.98
2018-12-20T18:26:43.603Z,4.42
2018-12-20T18:29:11.879Z,4.17
2018-12-20T18:31:40.212Z,4.37
2018-12-20T18:34:08.592Z,3.90
2018-12-20T18:36:37.000Z,5.20
2018-12-20T18:39:07.054Z,4.20
2018-12-20T18:41:36.357Z,4.50
2018-12-20T18:44:04.785Z,4.53
2018-12-20T18:46:33.229Z,4.42
2018-12-20T18:49:02.142Z,7.22
2018-12-20T18:51:30.455Z,64.95
2018-12-20T18:53:58.858Z,121.00
2018-12-20T18:56:27.192Z,65.12
2018-12-20T18:58:55.577Z,133.27
2018-12-20T19:01:23.909Z,112.75
2018-12-20T19:03:52.187Z,127.02
2018-12-20T19:06:20.487Z,8.43
2018-12-20T19:08:48.932Z,35.47
2018-12-20T19:11:17.277Z,167.62
2018-12-20T19:13:46.109Z,31.93
2018-12-20T19:16:14.412Z,15.20
2018-12-20T19:18:42.985Z,3.62
2018-12-20T19:21:11.389Z,4.42
2018-12-20T19:23:39.703Z,4.10
2018-12-20T19:26:08.099Z,3.70
2018-12-20T19:28:36.389Z,3.30
2018-12-20T19:31:05.340Z,3.40
2018-12-20T19:33:33.791Z,3.30
2018-12-20T19:36:02.762Z,4.10
2018-12-20T19:38:32.289Z,4.20
2018-12-20T19:41:00.706Z,4.62
2018-12-20T19:43:29.045Z,3.80
2018-12-20T19:45:57.660Z,460.65
2018-12-20T19:48:26.001Z,194.77
2018-12-20T19:50:54.420Z,456.25
2018-12-20T19:53:22.776Z,450.00
2018-12-20T19:55:51.199Z,332.20
2018-12-20T19:58:19.519Z,27.17
2018-12-20T20:00:47.903Z,4.60
2018-12-20T20:03:16.261Z,4.05
2018-12-20T20:05:44.614Z,3.80
2018-12-20T20:08:13.045Z,3.87
2018-12-20T20:10:42.400Z,3.62
2018-12-20T20:13:19.029Z,4.03
2018-12-20T20:15:41.826Z,3.98
2018-12-20T20:18:11.031Z,15.47
2018-12-20T20:20:39.343Z,292.92
2018-12-20T20:23:07.806Z,3.87
2018-12-20T20:25:36.195Z,17.20
2018-12-20T20:28:04.501Z,29.50
2018-12-20T20:30:32.971Z,55.55
2018-12-20T20:33:01.289Z,78.92
2018-12-20T20:35:29.629Z,69.62
2018-12-20T20:37:58.820Z,87.37
2018-12-20T20:40:27.233Z,106.17
2018-12-20T20:42:56.256Z,95.87
2018-12-20T20:45:24.708Z,127.97
2018-12-20T20:47:53.008Z,100.65
2018-12-20T20:50:22.589Z,108.47
2018-12-20T20:52:51.310Z,105.15
2018-12-20T20:55:19.705Z,75.05
2018-12-20T20:57:48.725Z,55.23
2018-12-20T21:00:17.053Z,12.95
2018-12-20T21:02:45.442Z,10.10
2018-12-20T21:05:13.857Z,85.87
2018-12-20T21:07:42.154Z,6.75
2018-12-20T21:10:10.647Z,5.30
2018-12-20T21:12:38.991Z,3.97
2018-12-20T21:15:09.105Z,4.87
2018-12-20T21:17:37.593Z,288.52
2018-12-20T21:20:07.929Z,335.63
2018-12-20T21:22:36.282Z,351.30
2018-12-20T21:25:05.194Z,307.95
2018-12-20T21:27:33.964Z,93.27
2018-12-20T21:30:02.282Z,7.85
2018-12-20T21:35:27.718Z,4.12
2018-12-20T21:37:56.023Z,4.40
2018-12-20T21:40:24.394Z,4.27
2018-12-20T21:42:53.704Z,3.42
2018-12-20T21:45:23.036Z,3.47
2018-12-20T21:47:52.402Z,3.20
2018-12-20T21:50:20.734Z,3.87
2018-12-20T21:52:49.093Z,3.52
2018-12-20T21:55:17.519Z,3.00
2018-12-20T21:57:45.988Z,2.95
2018-12-20T22:00:14.292Z,3.40
2018-12-20T22:02:42.692Z,3.05
2018-12-20T22:05:11.110Z,3.05
2018-12-20T22:07:39.450Z,2.60
2018-12-20T22:10:08.760Z,2.70
2018-12-20T22:12:37.071Z,2.72
2018-12-20T22:15:05.583Z,2.30
2018-12-20T22:17:33.987Z,3.10
2018-12-20T22:20:02.395Z,3.10
2018-12-20T22:22:30.791Z,3.00
2018-12-20T22:24:59.135Z,2.70
2018-12-20T22:27:29.387Z,2.30
2018-12-20T22:29:58.702Z,2.35
2018-12-20T22:32:27.087Z,2.42
2018-12-20T22:34:55.459Z,2.30
2018-12-20T22:37:23.773Z,2.47
2018-12-20T22:39:52.122Z,2.20
2018-12-20T22:42:20.393Z,2.45
2018-12-20T22:44:48.724Z,2.20
2018-12-20T22:47:17.027Z,2.05
2018-12-20T22:49:45.443Z,2.22
2018-12-20T22:52:13.773Z,1.87
2018-12-20T22:54:42.139Z,2.12
2018-12-20T22:57:10.561Z,2.22
2018-12-20T22:59:38.967Z,2.10
2018-12-20T23:02:07.353Z,2.17
2018-12-20T23:04:36.687Z,1.80
2018-12-20T23:07:05.130Z,1.70
2018-12-20T23:09:33.704Z,1.90
2018-12-20T23:12:01.976Z,2.07
2018-12-20T23:14:31.109Z,2.15
2018-12-20T23:16:59.463Z,2.20
2018-12-20T23:19:28.755Z,2.55
2018-12-20T23:21:57.075Z,2.62
2018-12-20T23:24:25.473Z,2.60
2018-12-20T23:26:53.824Z,2.90
2018-12-20T23:29:22.262Z,2.80
2018-12-20T23:31:50.577Z,3.10
2018-12-20T23:34:18.948Z,2.77
2018-12-20T23:36:47.458Z,3.45
2018-12-20T23:39:15.777Z,3.90
2018-12-20T23:41:44.067Z,3.40
2018-12-20T23:44:12.457Z,3.30
2018-12-20T23:46:40.793Z,3.08
2018-12-20T23:49:09.205Z,2.90
2018-12-20T23:51:45.109Z,2.80
2018-12-20T23:54:08.063Z,2.80
2018-12-20T23:56:37.324Z,3.08
2018-12-20T23:59:05.599Z,2.67
